createdAt,value
2023-02-25T00:03:01.927Z,96691.87
2023-02-25T00:06:17.580Z,96689.22
2023-02-25T00:09:29.649Z,96680.01
2023-02-25T00:12:42.369Z,96664.98
2023-02-25T00:15:54.436Z,96659.05
2023-02-25T00:19:07.182Z,96654.94
2023-02-25T00:22:19.640Z,96637.45
2023-02-25T00:25:32.333Z,96643.08
2023-02-25T00:28:45.081Z,96637.98
2023-02-25T00:31:57.136Z,96639.79
2023-02-25T00:35:12.541Z,96647.07
2023-02-25T00:38:25.072Z,96660.28
2023-02-25T00:41:37.322Z,96663.57
2023-02-25T00:44:52.856Z,96662.13
2023-02-25T00:48:05.798Z,96664.81
2023-02-25T00:51:20.561Z,96651.44
2023-02-25T00:54:33.332Z,96658.05
2023-02-25T00:57:46.094Z,96655.09
2023-02-25T01:00:58.206Z,96641.25
2023-02-25T01:04:10.862Z,96629.77
2023-02-25T01:07:23.958Z,96622.36
2023-02-25T01:10:37.239Z,96615.27
2023-02-25T01:13:49.980Z,96611.52
2023-02-25T01:17:03.360Z,96606.09
2023-02-25T01:20:19.961Z,96594.07
2023-02-25T01:23:32.241Z,96591.47
2023-02-25T01:26:49.071Z,96581.61
2023-02-25T01:30:01.172Z,96596.46
2023-02-25T01:33:14.172Z,96595.81
2023-02-25T01:36:26.268Z,96591.36
2023-02-25T01:39:38.336Z,96587.94
2023-02-25T01:42:51.142Z,96596.03
2023-02-25T01:46:03.501Z,96596.24
2023-02-25T01:49:20.987Z,96602.34
2023-02-25T01:52:33.656Z,96606.02
2023-02-25T01:55:47.318Z,96605.87
2023-02-25T01:59:00.438Z,96604.91
2023-02-25T02:02:15.302Z,96603.58
2023-02-25T02:05:33.113Z,96611.98
2023-02-25T02:08:46.878Z,96607.39
2023-02-25T02:12:01.912Z,96603.45
2023-02-25T02:15:20.212Z,96616.45
2023-02-25T02:18:35.324Z,96612.36
2023-02-25T02:22:02.742Z,96613.03
2023-02-25T02:25:56.105Z,96612.22
2023-02-25T02:29:46.041Z,96581.75
2023-02-25T02:33:04.064Z,96590.99
2023-02-25T02:36:22.286Z,96583.25
2023-02-25T02:39:45.688Z,96584.41
2023-02-25T02:43:15.679Z,96568.77
2023-02-25T02:46:32.192Z,96549.67
2023-02-25T02:49:49.920Z,96545.59
2023-02-25T02:53:08.986Z,96557.44
2023-02-25T02:56:25.436Z,96550.67
2023-02-25T02:59:43.012Z,96536.21
2023-02-25T03:03:00.764Z,96536.69
2023-02-25T03:06:19.034Z,96535.69
2023-02-25T03:09:36.356Z,96538.97
2023-02-25T03:12:48.665Z,96545.72
2023-02-25T03:16:02.193Z,96550.16
2023-02-25T03:19:20.948Z,96550.67
2023-02-25T03:22:39.404Z,96563.31
2023-02-25T03:25:56.621Z,96567.25
2023-02-25T03:29:09.135Z,96562.31
2023-02-25T03:32:25.197Z,96564.78
2023-02-25T03:35:40.626Z,96566.91
2023-02-25T03:38:58.565Z,96561.64
2023-02-25T03:42:15.792Z,96559.48
2023-02-25T03:45:30.857Z,96546.31
2023-02-25T03:48:46.654Z,96546.13
2023-02-25T03:52:02.362Z,96557.67
2023-02-25T03:55:18.649Z,96563.92
2023-02-25T03:58:31.213Z,96563.27
2023-02-25T04:01:44.489Z,96584.05
2023-02-25T04:04:57.696Z,96621.28
2023-02-25T04:08:13.096Z,96602.86
2023-02-25T04:11:25.388Z,96621.22
2023-02-25T04:14:37.872Z,96630.73
2023-02-25T04:17:50.741Z,96642.16
2023-02-25T04:21:02.709Z,96646.88
2023-02-25T04:24:15.870Z,96662.44
2023-02-25T04:27:27.878Z,96674.48
2023-02-25T04:30:40.138Z,96679.74
2023-02-25T04:33:53.462Z,96680.58
2023-02-25T04:37:06.222Z,96698.75
2023-02-25T04:40:23.980Z,96694.49
2023-02-25T04:43:36.134Z,96685.61
2023-02-25T04:46:51.119Z,96691.70
2023-02-25T04:50:03.307Z,96684.59
2023-02-25T04:53:15.360Z,96679.96
2023-02-25T04:56:27.852Z,96688.00
2023-02-25T04:59:40.193Z,96687.11
2023-02-25T05:02:52.931Z,96688.02
2023-02-25T05:06:05.424Z,96713.30
2023-02-25T05:09:17.526Z,96715.87
2023-02-25T05:12:29.727Z,96716.38
2023-02-25T05:15:41.873Z,96719.16
2023-02-25T05:18:54.866Z,96715.87
2023-02-25T05:22:06.970Z,96723.39
2023-02-25T05:25:19.165Z,96727.89
2023-02-25T05:28:31.902Z,96735.84
2023-02-25T05:31:45.494Z,96748.64
2023-02-25T05:34:58.044Z,96739.86
2023-02-25T05:38:10.157Z,96745.66
2023-02-25T05:41:22.762Z,96744.16
2023-02-25T05:44:35.051Z,96748.89
2023-02-25T05:47:50.692Z,96751.87
2023-02-25T05:51:10.859Z,96752.78
2023-02-25T05:54:25.619Z,96751.35
2023-02-25T05:57:40.765Z,96737.78
2023-02-25T06:00:56.584Z,96742.64
2023-02-25T06:04:09.019Z,96741.97
2023-02-25T06:07:21.412Z,96738.83
2023-02-25T06:10:36.178Z,96742.28
2023-02-25T06:13:49.094Z,96747.66
2023-02-25T06:17:02.168Z,96744.23
2023-02-25T06:20:19.731Z,96747.14
2023-02-25T06:23:34.410Z,96746.78
2023-02-25T06:26:47.043Z,96749.32
2023-02-25T06:30:02.068Z,96745.70
2023-02-25T06:33:14.174Z,96754.56
2023-02-25T06:36:27.144Z,96766.70
2023-02-25T06:39:41.869Z,96758.14
2023-02-25T06:42:54.118Z,96759.81
2023-02-25T06:46:11.917Z,96761.08
2023-02-25T06:49:24.741Z,96750.95
2023-02-25T06:52:36.914Z,96763.95
2023-02-25T06:55:48.899Z,96758.70
2023-02-25T06:59:01.974Z,96754.18
2023-02-25T07:02:16.917Z,96744.23
2023-02-25T07:05:28.968Z,96736.20
2023-02-25T07:08:41.225Z,96723.17
2023-02-25T07:11:53.278Z,96725.74
2023-02-25T07:15:05.917Z,96736.20
2023-02-25T07:18:18.086Z,96728.70
2023-02-25T07:21:31.004Z,96714.39
2023-02-25T07:24:43.510Z,96706.30
2023-02-25T07:27:55.561Z,96712.38
2023-02-25T07:31:12.598Z,96702.93
2023-02-25T07:34:24.676Z,96697.31
2023-02-25T07:37:37.568Z,96691.59
2023-02-25T07:40:49.599Z,96690.95
2023-02-25T07:44:01.708Z,96691.72
2023-02-25T07:47:13.729Z,96696.36
2023-02-25T07:50:25.955Z,96698.81
2023-02-25T07:53:38.299Z,96688.44
2023-02-25T07:56:51.519Z,96688.45
2023-02-25T08:00:04.679Z,96683.80
2023-02-25T08:03:18.885Z,96686.64
2023-02-25T08:06:31.985Z,96674.73
2023-02-25T08:09:44.374Z,96671.92
2023-02-25T08:12:56.708Z,96674.72
2023-02-25T08:16:12.828Z,96676.88
2023-02-25T08:19:24.883Z,96664.38
2023-02-25T08:22:36.842Z,96675.06
2023-02-25T08:39:55.010Z,96661.09
2023-02-25T08:43:11.312Z,96678.96
2023-02-25T08:46:31.333Z,96681.91
2023-02-25T08:49:53.164Z,96685.19
2023-02-25T08:53:12.992Z,96692.70
2023-02-25T08:56:28.237Z,96706.48
2023-02-25T08:59:42.994Z,96698.94
2023-02-25T09:02:56.450Z,96684.80
2023-02-25T09:06:10.539Z,96708.38
2023-02-25T09:09:26.998Z,96708.86
2023-02-25T09:12:38.966Z,96704.58
2023-02-25T09:16:04.954Z,96705.55
2023-02-25T09:19:18.650Z,96697.86
2023-02-25T09:22:33.298Z,96700.71
2023-02-25T09:25:48.005Z,96693.57
2023-02-25T09:29:00.608Z,96692.38
2023-02-25T09:32:15.607Z,96687.94
2023-02-25T09:35:28.607Z,96695.31
2023-02-25T09:38:41.306Z,96693.16
2023-02-25T09:42:03.749Z,96699.88
2023-02-25T09:45:22.546Z,96692.94
2023-02-25T09:48:39.262Z,96709.59
2023-02-25T09:51:56.807Z,96726.19
2023-02-25T09:55:17.618Z,96722.85
2023-02-25T09:58:40.986Z,96712.72
2023-02-25T10:01:58.436Z,96701.78
2023-02-25T10:05:28.365Z,96680.66
2023-02-25T10:08:47.824Z,96697.59
2023-02-25T10:12:10.195Z,96705.98
2023-02-25T10:15:39.229Z,96689.64
2023-02-25T10:19:03.795Z,96701.31
2023-02-25T10:22:49.199Z,96696.81
2023-02-25T10:26:09.259Z,96709.09
2023-02-25T10:29:28.269Z,96699.63
2023-02-25T10:32:43.253Z,96687.50
2023-02-25T10:36:01.012Z,96685.66
2023-02-25T10:39:15.877Z,96692.44
2023-02-25T10:58:44.394Z,96684.36
2023-02-25T11:05:46.887Z,96675.97
2023-02-25T11:13:29.807Z,96687.89
2023-02-25T11:16:44.545Z,96696.72
2023-02-25T11:24:21.618Z,96693.34
2023-02-25T11:27:43.745Z,96697.83
2023-02-25T11:34:40.507Z,96698.18
2023-02-25T11:58:24.257Z,96716.71
2023-02-25T12:02:26.772Z,96738.79
2023-02-25T12:06:45.798Z,96777.68
2023-02-25T12:18:50.156Z,96771.36
2023-02-25T12:25:28.245Z,96762.56
2023-02-25T12:40:17.553Z,96753.63
2023-02-25T12:57:11.170Z,96805.56
2023-02-25T13:01:22.403Z,96797.08
2023-02-25T13:08:11.492Z,96827.89
2023-02-25T13:11:48.121Z,96827.99
2023-02-25T13:14:59.774Z,96832.19
2023-02-25T13:19:17.512Z,96823.80
2023-02-25T13:26:00.575Z,96842.63
2023-02-25T13:29:34.365Z,96834.21
2023-02-25T13:45:45.206Z,96853.53
2023-02-25T13:49:43.348Z,96857.20
2023-02-25T13:53:17.703Z,96862.25
2023-02-25T13:57:05.382Z,96862.14
2023-02-25T14:01:01.286Z,96871.72
2023-02-25T14:05:06.284Z,96882.80
2023-02-25T14:08:41.290Z,96867.34
2023-02-25T14:12:12.455Z,96884.98
2023-02-25T14:15:49.663Z,96880.61
2023-02-25T14:19:44.255Z,96887.34
2023-02-25T14:27:32.429Z,96913.94
2023-02-25T15:43:06.792Z,96990.57
2023-02-25T15:58:59.478Z,97015.00
2023-02-25T16:06:45.305Z,97032.56
2023-02-25T16:10:03.939Z,97035.45
2023-02-25T16:13:52.783Z,97048.86
2023-02-25T16:17:10.141Z,97065.30
2023-02-25T16:20:29.177Z,97070.54
2023-02-25T16:23:44.649Z,97075.64
2023-02-25T16:27:04.979Z,97075.79
2023-02-25T16:30:41.595Z,97083.10
2023-02-25T16:34:31.788Z,97096.91
2023-02-25T16:37:52.028Z,97100.07
2023-02-25T16:41:09.357Z,97101.86
2023-02-25T16:44:27.930Z,97109.19
2023-02-25T16:47:42.418Z,97118.84
2023-02-25T16:55:01.235Z,97127.16
2023-02-25T16:58:28.095Z,97139.84
2023-02-25T17:01:43.422Z,97158.35
2023-02-25T17:04:57.831Z,97153.66
2023-02-25T17:08:16.018Z,97157.80
2023-02-25T17:15:35.366Z,97182.11
2023-02-25T17:18:53.735Z,97187.75
2023-02-25T17:22:07.188Z,97174.92
2023-02-25T17:25:22.436Z,97180.73
2023-02-25T17:28:38.457Z,97190.09
2023-02-25T17:31:55.082Z,97178.22
2023-02-25T17:35:10.276Z,97189.82
2023-02-25T17:38:25.938Z,97196.85
2023-02-25T17:41:41.609Z,97196.16
2023-02-25T17:44:53.790Z,97187.84
2023-02-25T17:55:42.185Z,97216.30
2023-02-25T18:02:54.102Z,97240.45
2023-02-25T18:16:43.207Z,97240.34
2023-02-25T18:19:56.607Z,97241.73
2023-02-25T18:36:11.167Z,97257.84
2023-02-25T18:43:42.918Z,97266.94
2023-02-25T18:51:18.449Z,97254.36
2023-02-25T18:54:31.664Z,97256.00
2023-02-25T18:57:43.703Z,97258.63
2023-02-25T19:01:02.446Z,97262.92
2023-02-25T19:04:18.370Z,97269.39
2023-02-25T19:07:34.364Z,97271.73
2023-02-25T19:10:48.738Z,97272.02
2023-02-25T19:14:02.478Z,97280.83
2023-02-25T19:17:19.040Z,97287.74
2023-02-25T19:20:31.304Z,97285.51
2023-02-25T19:23:43.449Z,97296.83
2023-02-25T19:26:55.840Z,97297.25
2023-02-25T19:30:08.303Z,97299.59
2023-02-25T19:33:21.057Z,97298.48
2023-02-25T19:36:33.316Z,97306.09
2023-02-25T19:39:45.988Z,97314.20
2023-02-25T19:42:58.748Z,97308.41
2023-02-25T19:46:17.236Z,97301.09
2023-02-25T19:49:30.018Z,97300.22
2023-02-25T19:52:42.103Z,97318.89
2023-02-25T19:55:54.240Z,97315.56
2023-02-25T19:59:08.480Z,97323.30
2023-02-25T20:02:21.475Z,97330.21
2023-02-25T20:05:33.647Z,97336.30
2023-02-25T20:08:48.461Z,97337.63
2023-02-25T20:12:00.588Z,97349.22
2023-02-25T20:15:16.249Z,97342.16
2023-02-25T20:18:28.580Z,97350.55
2023-02-25T20:21:40.865Z,97347.63
2023-02-25T20:24:54.629Z,97351.33
2023-02-25T20:28:07.042Z,97357.08
2023-02-25T20:31:22.195Z,97335.50
2023-02-25T20:34:35.232Z,97351.52
2023-02-25T20:37:56.026Z,97345.47
2023-02-25T20:41:09.424Z,97344.63
2023-02-25T20:44:22.425Z,97352.02
2023-02-25T20:47:38.784Z,97362.91
2023-02-25T20:50:54.100Z,97360.80
2023-02-25T20:54:07.601Z,97365.13
2023-02-25T20:57:24.320Z,97372.98
2023-02-25T21:00:36.471Z,97372.84
2023-02-25T21:03:48.524Z,97386.65
2023-02-25T21:07:00.816Z,97390.84
2023-02-25T21:10:16.607Z,97398.70
2023-02-25T21:13:28.692Z,97404.20
2023-02-25T21:16:41.203Z,97416.45
2023-02-25T21:19:53.656Z,97426.80
2023-02-25T21:23:06.091Z,97427.42
2023-02-25T21:26:19.278Z,97426.48
2023-02-25T21:29:32.322Z,97431.11
2023-02-25T21:32:44.432Z,97440.77
2023-02-25T21:36:01.126Z,97438.38
2023-02-25T21:39:13.529Z,97446.01
2023-02-25T21:42:25.941Z,97440.77
2023-02-25T21:45:38.843Z,97437.45
2023-02-25T21:48:53.402Z,97444.82
2023-02-25T21:56:37.982Z,97452.09
2023-02-25T22:03:42.516Z,97444.73
2023-02-25T22:06:54.608Z,97452.00
2023-02-25T22:10:08.904Z,97452.13
2023-02-25T22:13:20.948Z,97473.78
2023-02-25T22:20:45.579Z,97479.36
2023-02-25T22:24:02.081Z,97481.14
2023-02-25T22:38:38.294Z,97494.23
2023-02-25T22:45:31.333Z,97499.81
2023-02-25T22:48:45.597Z,97511.61
2023-02-25T22:52:00.555Z,97503.98
2023-02-25T22:55:17.267Z,97513.52
2023-02-25T23:16:58.188Z,97544.45
2023-02-25T23:24:15.838Z,97555.98
2023-02-25T23:34:50.145Z,97565.13
2023-02-25T23:38:02.126Z,97576.66
2023-02-25T23:44:51.254Z,97587.97
2023-02-25T23:52:02.466Z,97592.98
2023-02-25T23:59:18.540Z,97593.80
